Time;durP1;ratioP1;P1;durP2;ratioP2;P2;SDS_P1;SDS_P2;PMS_P1;PMS_P2;Temp;Humidity;BMP_temperature;BMP_pressure;BME280_temperature;BME280_humidity;BME280_pressure;Samples;Min_cycle;Max_cycle;Signal;HPM_P1;HPM_P2
2022/08/12 00:46:38;;;;;;;4.13;1.90;;;;;;;12.71;78.03;97133.56;10496144;28;20534;-75
2022/08/12 00:57:03;;;;;;;6.80;2.08;;;;;;;12.60;78.77;97132.06;10496000;28;20231;-74
2022/08/12 01:02:04;;;;;;;2.20;2.00;;;;;;;12.52;79.17;97138.09;10495578;28;20216;-74
2022/08/12 01:12:26;;;;;;;4.72;2.15;;;;;;;12.64;79.05;97122.88;10494682;28;20195;-75
2022/08/12 01:17:26;;;;;;;4.40;1.70;;;;;;;12.46;79.93;97130.84;10477377;28;20183;-74
2022/08/12 01:22:40;;;;;;;4.00;2.33;;;;;;;12.43;80.58;97139.06;10495252;28;20215;-75
2022/08/12 01:27:41;;;;;;;3.45;2.40;;;;;;;12.27;81.18;97140.63;10476957;28;20262;-75
2022/08/12 01:32:46;;;;;;;3.28;2.20;;;;;;;12.13;82.67;97135.97;10476565;28;20262;-75
2022/08/12 01:38:03;;;;;;;4.50;2.17;;;;;;;12.02;83.95;97130.97;10494631;28;20760;-75
2022/08/12 01:43:08;;;;;;;4.93;2.50;;;;;;;12.03;84.37;97133.44;10476419;28;20686;-75
2022/08/12 01:48:28;;;;;;;5.72;2.40;;;;;;;11.93;85.05;97136.16;10494024;28;20613;-75
2022/08/12 01:53:45;;;;;;;7.85;2.53;;;;;;;11.87;86.53;97139.38;10493984;28;20776;-74
2022/08/12 02:15:50;;;;;;;2.67;1.95;;;;;;;12.27;86.65;97113.53;10466901;28;20672;-74
2022/08/12 02:21:01;;;;;;;4.68;1.63;;;;;;;12.27;86.60;97109.09;10493457;28;20204;-74
2022/08/12 02:26:07;;;;;;;4.22;2.15;;;;;;;12.27;87.28;97109.09;10475417;28;20194;-75
2022/08/12 02:31:08;;;;;;;2.75;1.90;;;;;;;12.24;87.72;97098.91;10493520;28;20203;-75
2022/08/12 02:36:08;;;;;;;6.57;2.00;;;;;;;12.13;88.57;97100.00;10496341;28;20211;-75
2022/08/12 02:41:10;;;;;;;7.30;1.88;;;;;;;12.15;89.68;97106.91;10494968;28;20551;-75
2022/08/12 02:46:12;;;;;;;15.48;2.75;;;;;;;12.06;90.06;97098.97;10500545;28;20206;-75
2022/08/12 02:51:18;;;;;;;2.47;2.28;;;;;;;12.01;90.83;97098.63;10500622;28;20244;-74
2022/08/12 02:56:18;;;;;;;4.88;2.40;;;;;;;11.90;92.10;97093.63;10500534;28;20777;-74
2022/08/12 03:01:22;;;;;;;2.87;2.17;;;;;;;11.86;93.01;97093.09;10499952;28;20219;-74
2022/08/12 03:06:26;;;;;;;5.18;2.17;;;;;;;11.80;92.96;97098.16;10479916;28;20205;-74
2022/08/12 03:11:44;;;;;;;5.37;1.53;;;;;;;11.77;94.13;97094.84;10478084;28;20191;-75
2022/08/12 03:16:53;;;;;;;4.70;2.53;;;;;;;11.85;94.08;97101.13;10496095;28;20560;-74
2022/08/12 03:21:54;;;;;;;3.60;1.70;;;;;;;11.76;94.86;97103.72;10477731;28;20222;-75
2022/08/12 03:26:55;;;;;;;2.33;2.13;;;;;;;11.68;94.94;97103.63;10477406;28;20567;-75
2022/08/12 03:31:59;;;;;;;4.30;1.70;;;;;;;11.57;96.61;97112.59;10477674;28;20195;-75
2022/08/12 03:37:01;;;;;;;1.93;1.60;;;;;;;11.35;97.92;97106.03;10495415;28;20239;-75
2022/08/12 03:42:22;;;;;;;2.27;1.60;;;;;;;11.35;99.23;97107.84;10494615;28;20231;-74
2022/08/12 04:08:56;;;;;;;2.63;1.85;;;;;;;11.16;100.00;97117.50;10497891;28;20278;-76
2022/08/12 04:14:13;;;;;;;2.93;1.80;;;;;;;11.14;100.00;97118.63;10497359;28;20187;-75
2022/08/12 04:19:14;;;;;;;4.63;1.90;;;;;;;11.07;100.00;97124.47;10497782;28;20199;-75
2022/08/12 04:24:15;;;;;;;4.33;2.03;;;;;;;11.12;100.00;97131.91;10496795;28;20686;-75
2022/08/12 04:29:15;;;;;;;5.07;1.83;;;;;;;11.13;100.00;97127.47;10479004;28;20198;-73
2022/08/12 04:34:16;;;;;;;1.67;1.57;;;;;;;11.02;100.00;97121.47;10478864;28;20687;-75
2022/08/12 04:39:16;;;;;;;6.77;1.70;;;;;;;11.00;100.00;97126.03;10496666;28;20290;-75
2022/08/12 04:44:17;;;;;;;4.20;1.90;;;;;;;11.05;100.00;97129.03;10478566;28;20222;-75
2022/08/12 04:49:17;;;;;;;2.60;1.80;;;;;;;11.11;100.00;97129.44;10496567;28;20191;-75
2022/08/12 04:54:18;;;;;;;3.10;1.80;;;;;;;11.11;100.00;97126.81;10478078;28;20288;-75
2022/08/12 04:59:18;;;;;;;5.97;2.50;;;;;;;11.18;100.00;97127.81;10478340;28;20191;-75
2022/08/12 05:04:20;;;;;;;1.87;1.73;;;;;;;11.41;100.00;97113.28;10495953;28;20741;-76
2022/08/12 05:09:21;;;;;;;4.05;1.83;;;;;;;11.58;100.00;97116.06;10477485;28;20193;-74
2022/08/12 05:14:22;;;;;;;5.40;1.90;;;;;;;11.77;99.27;97120.28;10494955;28;20184;-74
2022/08/12 05:19:23;;;;;;;2.63;1.77;;;;;;;12.07;96.66;97124.28;10534718;28;20193;-74
2022/08/12 05:24:23;;;;;;;5.05;2.17;;;;;;;12.37;95.88;97124.72;10533544;28;20659;-74
2022/08/12 05:29:23;;;;;;;5.15;2.38;;;;;;;12.64;92.29;97118.44;10532366;28;20596;-74
2022/08/12 05:34:24;;;;;;;2.78;2.08;;;;;;;12.93;89.64;97111.13;10534623;28;20572;-74
2022/08/12 05:39:24;;;;;;;2.15;1.95;;;;;;;13.13;88.36;97101.94;10535577;28;20195;-74
2022/08/12 05:44:25;;;;;;;2.33;2.08;;;;;;;13.41;86.74;97103.47;10534901;28;20218;-74
2022/08/12 05:49:25;;;;;;;3.05;1.70;;;;;;;13.84;84.89;97096.19;10517473;28;20299;-75
2022/08/12 05:54:26;;;;;;;2.40;1.65;;;;;;;14.68;81.24;97077.31;10534442;28;20235;-73
2022/08/12 05:59:26;;;;;;;2.70;1.50;;;;;;;15.28;77.73;97066.03;10533967;28;20191;-73
2022/08/12 06:04:27;;;;;;;4.90;2.08;;;;;;;16.18;74.08;97035.25;10533868;28;20216;-74
2022/08/12 06:09:29;;;;;;;3.35;1.67;;;;;;;17.70;68.64;96993.75;10533551;28;20190;-74
2022/08/12 06:14:30;;;;;;;1.92;1.50;;;;;;;19.21;63.58;96950.34;10532608;28;20320;-74
2022/08/12 06:19:30;;;;;;;3.35;1.20;;;;;;;20.00;61.65;96952.22;10532656;28;20625;-73
2022/08/12 06:24:32;;;;;;;4.55;1.23;;;;;;;20.62;57.73;96900.09;10536746;28;20225;-73
2022/08/12 06:29:34;;;;;;;6.10;1.10;;;;;;;20.89;54.90;96854.69;10533859;28;20601;-73
2022/08/12 06:34:35;;;;;;;3.15;1.33;;;;;;;21.02;56.10;96907.00;10533008;28;20212;-72
2022/08/12 06:39:35;;;;;;;8.30;1.50;;;;;;;20.84;55.62;96900.59;10533636;28;20542;-74
2022/08/12 06:44:35;;;;;;;1.55;1.00;;;;;;;21.35;53.71;96874.72;10532740;28;20301;-74
2022/08/12 06:49:36;;;;;;;3.00;1.33;;;;;;;22.88;49.97;96832.84;10532783;28;20206;-74
2022/08/12 06:54:36;;;;;;;2.58;1.10;;;;;;;23.36;47.36;96813.09;10531415;28;20237;-74
2022/08/12 06:59:39;;;;;;;7.00;1.50;;;;;;;22.96;48.38;96811.94;10527355;28;20309;-74
2022/08/12 07:04:40;;;;;;;1.60;1.10;;;;;;;21.59;52.41;96896.22;10558281;28;20274;-73
2022/08/12 07:09:44;;;;;;;3.33;1.38;;;;;;;20.77;54.67;96944.28;10553438;28;20190;-73
2022/08/12 07:14:50;;;;;;;7.22;1.80;;;;;;;20.55;55.03;96946.44;10529893;28;20594;-73
2022/08/12 07:19:52;;;;;;;11.85;1.13;;;;;;;21.02;54.99;96962.94;10528193;28;20638;-73
2022/08/12 07:25:29;;;;;;;1.40;1.30;;;;;;;20.61;55.39;96946.41;10529944;28;20274;-74
2022/08/12 07:30:13;;;;;;;1.92;0.95;;;;;;;20.57;55.78;96976.34;10532952;28;20256;-74
2022/08/12 07:35:13;;;;;;;2.22;1.10;;;;;;;20.28;55.69;96976.66;10537765;28;20705;-74
2022/08/12 07:40:14;;;;;;;2.67;1.40;;;;;;;20.28;57.33;97013.91;10537941;28;20226;-73
2022/08/12 07:45:14;;;;;;;3.05;1.63;;;;;;;20.52;55.38;96965.50;10536824;28;20229;-73
2022/08/12 07:50:17;;;;;;;6.70;1.40;;;;;;;21.00;54.06;96952.50;10537065;28;20189;-73
2022/08/12 07:55:17;;;;;;;4.47;1.42;;;;;;;21.90;53.97;96967.28;10537011;28;20230;-74
2022/08/12 08:00:18;;;;;;;10.20;1.10;;;;;;;23.28;51.05;96928.41;10535626;28;20409;-74
2022/08/12 08:05:20;;;;;;;2.40;1.33;;;;;;;23.68;48.75;96882.22;10536425;28;20218;-74
2022/08/12 08:10:21;;;;;;;7.15;1.30;;;;;;;25.83;43.79;96811.69;10547092;28;20251;-73
2022/08/12 08:15:23;;;;;;;3.10;1.17;;;;;;;26.25;43.29;96803.00;10536616;28;20201;-73
2022/08/12 08:20:27;;;;;;;3.75;1.10;;;;;;;23.33;47.45;96797.53;10536050;28;20214;-73
2022/08/12 08:25:30;;;;;;;2.85;1.40;;;;;;;23.51;48.54;96877.59;10535212;28;20211;-76
2022/08/12 08:30:31;;;;;;;4.57;1.42;;;;;;;25.19;46.10;96858.63;10537089;28;20221;-75
2022/08/12 08:35:32;;;;;;;1.67;1.10;;;;;;;25.49;43.99;96819.88;10534656;28;20214;-74
2022/08/12 08:45:57;;;;;;;2.72;1.83;;;;;;;25.50;43.22;96792.00;10530427;28;20218;-75
2022/08/12 08:50:58;;;;;;;1.48;1.15;;;;;;;23.40;47.01;96810.75;10532431;28;20212;-74
2022/08/12 08:55:58;;;;;;;3.10;1.17;;;;;;;24.98;45.39;96849.47;10516031;28;20245;-74
2022/08/12 09:07:17;;;;;;;3.70;1.05;;;;;;;24.35;48.22;96910.28;10528085;28;20671;-74
2022/08/12 09:17:37;;;;;;;5.18;1.35;;;;;;;26.11;43.52;96812.53;10531854;28;20220;-75
2022/08/12 09:22:38;;;;;;;1.20;1.10;;;;;;;26.32;43.02;96833.13;10507729;28;20228;-74
2022/08/12 09:27:38;;;;;;;7.77;1.10;;;;;;;26.61;42.46;96832.84;10473260;28;20293;-74
2022/08/12 09:32:41;;;;;;;2.28;1.20;;;;;;;26.69;41.68;96775.97;10473138;28;20435;-75
2022/08/12 09:37:41;;;;;;;3.33;0.90;;;;;;;27.65;40.22;96775.91;10497598;28;20245;-75
2022/08/12 09:48:05;;;;;;;1.00;0.95;;;;;;;25.48;44.42;96820.13;10532326;28;20506;-74
2022/08/12 09:53:10;;;;;;;2.42;1.30;;;;;;;25.93;43.49;96821.72;10532027;28;20244;-75
2022/08/12 09:58:11;;;;;;;4.40;1.25;;;;;;;26.05;43.83;96832.34;10514478;28;20218;-75
2022/08/12 10:03:13;;;;;;;1.77;1.10;;;;;;;26.60;42.29;96782.06;10513093;28;20767;-75
2022/08/12 10:08:15;;;;;;;3.58;1.23;;;;;;;26.67;41.86;96783.47;10491447;28;20456;-75
2022/08/12 10:18:46;;;;;;;2.63;1.05;;;;;;;27.85;39.19;96744.75;10515664;28;20186;-75
2022/08/12 10:23:47;;;;;;;3.22;1.05;;;;;;;28.04;39.29;96748.56;10533145;28;20214;-74
2022/08/12 10:34:08;;;;;;;2.13;0.90;;;;;;;28.08;38.84;96730.78;10532456;28;20289;-74
2022/08/12 10:39:11;;;;;;;2.30;1.00;;;;;;;26.91;40.43;96696.25;10533216;28;20734;-74
2022/08/12 10:44:14;;;;;;;1.95;1.15;;;;;;;25.88;42.22;96730.41;10511771;28;20253;-75
2022/08/12 10:49:15;;;;;;;3.40;1.02;;;;;;;25.93;41.27;96699.06;10532570;28;20187;-76
2022/08/12 10:54:15;;;;;;;2.55;0.93;;;;;;;25.44;41.92;96689.19;10528996;28;20226;-75
2022/08/12 10:59:16;;;;;;;3.05;1.23;;;;;;;25.86;42.86;96752.13;10529445;28;20184;-75
2022/08/12 11:04:17;;;;;;;1.40;1.30;;;;;;;25.77;43.72;96753.66;10531295;28;20219;-76
2022/08/12 11:09:18;;;;;;;3.10;1.27;;;;;;;26.72;42.01;96741.59;10520959;28;20229;-75
2022/08/12 11:14:27;;;;;;;2.47;1.00;;;;;;;27.22;40.08;96710.66;10537905;28;20194;-75
2022/08/12 11:19:28;;;;;;;1.50;1.00;;;;;;;26.29;42.69;96758.44;10504771;28;20199;-75
2022/08/12 11:24:29;;;;;;;5.32;1.20;;;;;;;25.94;42.05;96711.41;10495478;28;20682;-75
2022/08/12 11:29:30;;;;;;;1.30;0.82;;;;;;;25.09;44.60;96751.25;10479736;28;20195;-75
2022/08/12 11:34:31;;;;;;;2.17;1.20;;;;;;;25.38;43.45;96732.31;10497762;28;20215;-75
2022/08/12 11:39:32;;;;;;;1.75;1.20;;;;;;;24.68;45.81;96777.47;10499100;28;20183;-75
2022/08/12 11:44:32;;;;;;;4.30;1.20;;;;;;;24.75;44.22;96733.38;10497553;28;20265;-75
2022/08/12 11:49:32;;;;;;;3.25;1.27;;;;;;;25.17;44.67;96766.09;10534400;28;20275;-75
2022/08/12 11:54:33;;;;;;;2.03;1.10;;;;;;;27.48;40.76;96730.41;10538626;28;20219;-75
2022/08/12 11:59:33;;;;;;;3.50;1.30;;;;;;;28.00;39.23;96690.94;10538453;28;20269;-75
2022/08/12 12:04:33;;;;;;;2.20;1.30;;;;;;;26.96;41.33;96707.84;10536967;28;20491;-74
2022/08/12 12:09:35;;;;;;;1.35;1.00;;;;;;;26.97;41.73;96716.72;10537590;28;20444;-75
2022/08/12 12:14:35;;;;;;;3.60;1.30;;;;;;;27.04;40.93;96712.75;10538051;28;20533;-74
2022/08/12 12:19:36;;;;;;;2.87;1.50;;;;;;;28.30;38.80;96670.44;10538503;28;20194;-75
2022/08/12 12:24:36;;;;;;;3.60;1.07;;;;;;;28.86;37.27;96661.44;10536994;28;20571;-74
2022/08/12 12:29:36;;;;;;;5.60;1.20;;;;;;;28.69;36.97;96621.31;10538017;28;20429;-75
2022/08/12 12:34:37;;;;;;;9.20;1.30;;;;;;;30.34;35.21;96647.25;10537274;28;20456;-75
2022/08/12 12:39:38;;;;;;;5.53;1.40;;;;;;;28.54;37.11;96597.09;10539330;28;20440;-74
2022/08/12 12:44:39;;;;;;;2.47;1.20;;;;;;;28.70;36.68;96614.03;10518040;28;20690;-75
2022/08/12 12:49:39;;;;;;;2.33;1.30;;;;;;;27.86;38.42;96628.72;10535292;28;20240;-75
2022/08/12 12:54:51;;;;;;;1.47;1.17;;;;;;;27.99;38.17;96616.59;10536822;28;20476;-75
2022/08/12 13:05:11;;;;;;;1.40;1.10;;;;;;;27.96;38.04;96635.19;10536591;28;20230;-76
2022/08/12 13:10:12;;;;;;;3.38;1.30;;;;;;;26.85;39.98;96645.16;10516503;28;20642;-76
2022/08/12 13:15:14;;;;;;;2.03;1.50;;;;;;;26.00;42.79;96682.75;10535095;28;20191;-76
2022/08/12 13:20:19;;;;;;;5.90;1.70;;;;;;;26.03;42.32;96663.44;10535760;28;20201;-76
2022/08/12 13:25:20;;;;;;;3.42;1.30;;;;;;;27.22;40.90;96681.84;10535786;28;20213;-76
2022/08/12 13:30:22;;;;;;;2.90;1.38;;;;;;;27.14;39.96;96666.25;10517555;28;20193;-76
2022/08/12 13:35:22;;;;;;;1.45;1.20;;;;;;;26.20;40.35;96614.16;10517767;28;20226;-76
2022/08/12 13:40:27;;;;;;;1.88;1.27;;;;;;;27.43;40.06;96665.00;10535926;28;20194;-75
2022/08/12 13:45:29;;;;;;;3.55;1.33;;;;;;;28.83;37.73;96629.63;10535739;28;20716;-76
2022/08/12 13:50:35;;;;;;;3.03;1.35;;;;;;;30.57;35.46;96634.88;10535270;28;20194;-76
2022/08/12 13:55:36;;;;;;;2.50;1.20;;;;;;;28.24;35.82;96508.00;10534294;28;20253;-73
2022/08/12 14:00:37;;;;;;;1.38;1.10;;;;;;;28.90;36.01;96573.50;10516713;28;20290;-73
2022/08/12 14:05:37;;;;;;;4.22;1.20;;;;;;;31.16;34.14;96597.63;10533815;28;20224;-76
2022/08/12 14:10:50;;;;;;;1.55;0.95;;;;;;;33.44;31.37;96570.72;10516630;28;20198;-76
2022/08/12 14:15:56;;;;;;;1.10;1.00;;;;;;;29.83;33.98;96478.38;10520114;28;20253;-78
2022/08/12 14:21:00;;;;;;;2.72;1.10;;;;;;;31.71;32.29;96547.56;10535318;28;20178;-76
2022/08/12 14:26:04;;;;;;;4.63;1.15;;;;;;;33.44;30.01;96524.53;10526973;28;20234;-76
2022/08/12 14:31:09;;;;;;;1.67;1.20;;;;;;;35.92;27.20;96505.34;10576508;28;20197;-75
2022/08/12 14:36:10;;;;;;;3.72;1.17;;;;;;;33.73;29.10;96475.19;10538298;28;20198;-75
2022/08/12 14:41:13;;;;;;;1.40;0.90;;;;;;;34.31;27.85;96459.75;10533155;28;20185;-75
2022/08/12 14:46:15;;;;;;;5.82;1.13;;;;;;;35.54;26.47;96450.44;10533151;28;20408;-76
2022/08/12 14:51:20;;;;;;;2.17;0.82;;;;;;;36.57;26.62;96490.44;10515399;28;20194;-76
2022/08/12 14:56:23;;;;;;;2.30;0.93;;;;;;;36.91;24.91;96433.22;10514932;28;20249;-75
2022/08/12 15:01:40;;;;;;;1.80;0.98;;;;;;;34.65;27.30;96414.66;10532807;28;20190;-75
2022/08/12 15:06:41;;;;;;;2.35;1.13;;;;;;;37.08;24.86;96422.13;10532888;28;20303;-74
2022/08/12 15:11:42;;;;;;;1.38;1.00;;;;;;;35.40;26.99;96417.16;10532710;28;20225;-76
2022/08/12 15:16:42;;;;;;;3.92;1.20;;;;;;;35.78;26.37;96421.88;10532739;28;20178;-76
2022/08/12 15:21:43;;;;;;;3.00;0.93;;;;;;;32.49;30.28;96391.25;10545386;28;20209;-75
2022/08/12 15:26:43;;;;;;;1.00;0.90;;;;;;;34.48;28.26;96457.03;10512230;28;20822;-76
2022/08/12 15:31:44;;;;;;;1.27;0.90;;;;;;;34.77;27.27;96439.34;10533946;28;20873;-76
2022/08/12 15:36:44;;;;;;;1.38;0.73;;;;;;;33.32;29.36;96414.53;10534048;28;20217;-75
2022/08/12 15:41:45;;;;;;;1.80;0.77;;;;;;;34.65;28.02;96448.09;10533218;28;20218;-75
2022/08/12 15:46:45;;;;;;;1.20;1.10;;;;;;;35.89;26.69;96450.34;10533605;28;20492;-75
2022/08/12 15:51:49;;;;;;;2.63;1.10;;;;;;;35.14;26.70;96430.81;10537073;28;20186;-75
2022/08/12 15:56:50;;;;;;;2.72;0.88;;;;;;;34.56;27.45;96411.13;10540193;28;20467;-75
2022/08/12 16:01:51;;;;;;;1.17;0.80;;;;;;;32.45;29.56;96379.44;10539497;28;20240;-76
2022/08/12 16:06:52;;;;;;;0.85;0.82;;;;;;;31.45;30.54;96380.09;10534929;28;20706;-73
2022/08/12 16:11:53;;;;;;;1.48;0.80;;;;;;;33.13;28.97;96435.66;10530466;28;20267;-75
2022/08/12 16:16:54;;;;;;;2.80;0.93;;;;;;;32.66;28.62;96382.47;10535620;28;20658;-76
2022/08/12 16:21:55;;;;;;;1.23;0.90;;;;;;;30.36;31.80;96391.00;10538319;28;20244;-76
2022/08/12 16:26:55;;;;;;;2.10;1.00;;;;;;;28.82;34.59;96410.41;10520941;28;20244;-75
2022/08/12 16:31:56;;;;;;;1.10;0.90;;;;;;;29.43;33.87;96459.56;10538536;28;20248;-76
2022/08/12 16:37:00;;;;;;;1.20;1.10;;;;;;;28.85;34.31;96441.38;10538525;28;20453;-74
2022/08/12 16:42:01;;;;;;;1.52;1.40;;;;;;;27.52;36.19;96448.94;10520491;28;20520;-76
2022/08/12 16:47:01;;;;;;;1.90;1.10;;;;;;;27.71;35.95;96459.13;10519849;28;20229;-75
2022/08/12 16:52:02;;;;;;;2.93;1.30;;;;;;;27.88;36.09;96464.19;10538056;28;20189;-75
2022/08/12 16:57:08;;;;;;;3.17;1.05;;;;;;;26.66;38.17;96485.44;10536819;28;20464;-76
2022/08/12 17:02:10;;;;;;;1.20;1.10;;;;;;;26.20;39.32;96510.25;10518590;28;20216;-75
2022/08/12 17:07:15;;;;;;;2.10;1.10;;;;;;;25.72;39.94;96509.44;10537598;28;20218;-75
2022/08/12 17:12:17;;;;;;;1.30;1.20;;;;;;;26.07;39.12;96513.41;10536835;28;20186;-75
2022/08/12 17:17:20;;;;;;;5.13;1.20;;;;;;;25.38;40.81;96525.81;10518965;28;20658;-75
2022/08/12 17:22:22;;;;;;;1.33;1.23;;;;;;;25.42;40.27;96521.53;10536192;28;20218;-75
2022/08/12 17:27:25;;;;;;;4.30;1.10;;;;;;;25.24;41.61;96541.50;10518929;28;20195;-75
2022/08/12 17:32:25;;;;;;;3.67;1.30;;;;;;;24.60;41.82;96542.97;10536666;28;20191;-75
2022/08/12 17:37:25;;;;;;;1.95;1.13;;;;;;;24.54;42.23;96543.97;10536676;28;20689;-76
2022/08/12 17:42:26;;;;;;;2.20;0.95;;;;;;;24.21;43.09;96567.94;10534893;28;20222;-74
2022/08/12 17:47:27;;;;;;;1.92;1.30;;;;;;;24.15;43.87;96595.69;10535386;28;20197;-74
2022/08/12 17:52:28;;;;;;;4.80;1.30;;;;;;;24.01;43.52;96589.03;10534640;28;20688;-75
2022/08/12 17:57:29;;;;;;;3.15;1.33;;;;;;;23.39;44.67;96603.28;10535306;28;20527;-74
2022/08/12 18:02:35;;;;;;;3.88;1.30;;;;;;;23.33;44.24;96599.72;10537654;28;20214;-75
2022/08/12 18:07:36;;;;;;;1.70;1.20;;;;;;;23.03;45.64;96624.78;10534877;28;20650;-76
2022/08/12 18:12:38;;;;;;;3.55;1.23;;;;;;;22.83;45.83;96632.41;10533356;28;20202;-75
2022/08/12 18:17:41;;;;;;;1.02;1.02;;;;;;;22.79;46.40;96650.78;10533598;28;20654;-76
2022/08/12 18:22:43;;;;;;;3.42;1.30;;;;;;;22.38;47.10;96658.72;10533106;28;20218;-76
2022/08/12 18:27:43;;;;;;;4.95;1.30;;;;;;;22.44;46.82;96664.97;10533786;28;20205;-75
2022/08/12 18:32:44;;;;;;;1.30;1.20;;;;;;;22.20;47.94;96691.63;10515914;28;20191;-75
2022/08/12 18:37:44;;;;;;;1.27;1.20;;;;;;;21.84;48.40;96695.31;10534014;28;20877;-74
2022/08/12 18:42:46;;;;;;;4.47;1.15;;;;;;;21.77;49.70;96740.72;10533448;28;20214;-75
2022/08/12 18:47:46;;;;;;;2.15;1.38;;;;;;;21.38;51.06;96756.22;10534190;28;20225;-75
2022/08/12 18:52:46;;;;;;;1.40;1.30;;;;;;;20.93;52.77;96791.94;10515421;28;20254;-75
2022/08/12 18:57:47;;;;;;;2.13;1.30;;;;;;;20.34;54.51;96823.34;10515743;28;20202;-76
2022/08/12 19:02:49;;;;;;;2.55;1.58;;;;;;;20.04;55.22;96837.25;10515358;28;20218;-75
2022/08/12 19:07:52;;;;;;;4.93;1.48;;;;;;;19.61;56.87;96870.53;10533565;28;20219;-74
2022/08/12 19:18:12;;;;;;;2.88;1.92;;;;;;;18.67;60.02;96899.06;10533590;28;20646;-74
2022/08/12 19:23:14;;;;;;;7.85;2.13;;;;;;;18.28;61.52;96913.88;10532516;28;20222;-75
2022/08/12 19:28:17;;;;;;;2.33;1.70;;;;;;;18.05;62.53;96914.22;10539933;28;20277;-75
2022/08/12 19:33:21;;;;;;;5.22;2.00;;;;;;;17.80;63.74;96929.81;10523155;28;20187;-75
2022/08/12 19:38:21;;;;;;;3.42;1.73;;;;;;;17.57;64.58;96922.16;10540974;28;20195;-76
2022/08/12 19:43:24;;;;;;;2.15;1.83;;;;;;;17.40;65.61;96927.75;10540539;28;20599;-75
2022/08/12 19:48:30;;;;;;;4.57;1.85;;;;;;;17.30;66.35;96927.28;10540475;28;20187;-75
2022/08/12 19:53:30;;;;;;;3.97;2.30;;;;;;;17.01;67.39;96926.44;10539882;28;20215;-75
2022/08/12 19:58:30;;;;;;;3.47;2.30;;;;;;;17.00;67.61;96922.19;10539975;28;20247;-74
2022/08/12 20:03:32;;;;;;;5.13;2.80;;;;;;;16.89;68.14;96914.75;10522403;28;20341;-76
2022/08/12 20:08:33;;;;;;;7.72;3.13;;;;;;;16.71;68.87;96918.66;10540491;28;20245;-76
2022/08/12 20:13:34;;;;;;;11.57;3.63;;;;;;;16.60;69.60;96919.19;10522343;28;20193;-75
2022/08/12 20:18:34;;;;;;;8.05;3.15;;;;;;;16.47;70.63;96916.41;10540371;28;20750;-75
2022/08/12 20:23:36;;;;;;;6.72;2.80;;;;;;;16.39;71.16;96912.06;10539487;28;20222;-74
2022/08/12 20:28:37;;;;;;;7.25;2.72;;;;;;;16.34;71.33;96911.78;10539869;28;20190;-74
2022/08/12 20:33:37;;;;;;;4.20;2.60;;;;;;;16.31;71.61;96917.44;10539601;28;20627;-76
2022/08/12 20:38:38;;;;;;;6.05;2.72;;;;;;;16.08;72.90;96917.59;10521776;28;20202;-75
2022/08/12 20:43:38;;;;;;;4.70;2.40;;;;;;;16.01;73.50;96923.63;10539386;28;20225;-74
2022/08/12 20:48:42;;;;;;;5.78;2.50;;;;;;;15.86;74.35;96928.97;10539285;28;20199;-75
2022/08/12 20:53:47;;;;;;;2.50;2.30;;;;;;;15.76;74.95;96925.75;10538472;28;20578;-75
2022/08/12 20:58:49;;;;;;;6.28;2.20;;;;;;;15.70;75.28;96927.31;10521593;28;20202;-76
2022/08/12 21:09:08;;;;;;;5.63;2.63;;;;;;;15.50;76.67;96924.41;10538332;28;20194;-76
2022/08/12 21:14:09;;;;;;;5.32;2.53;;;;;;;15.47;77.06;96923.97;10538224;28;20179;-76
2022/08/12 21:19:11;;;;;;;4.32;2.30;;;;;;;15.43;77.61;96927.94;10538370;28;20193;-77
2022/08/12 21:24:11;;;;;;;2.22;2.03;;;;;;;15.42;77.81;96927.16;10537677;28;20306;-75
2022/08/12 21:29:14;;;;;;;2.38;2.15;;;;;;;15.30;78.35;96926.75;10541130;28;20302;-76
2022/08/12 21:34:18;;;;;;;6.00;2.22;;;;;;;15.15;79.97;96925.94;10538449;28;20210;-75
2022/08/12 21:39:27;;;;;;;2.60;2.40;;;;;;;15.05;80.28;96920.09;10536949;28;20272;-75
2022/08/12 21:44:31;;;;;;;2.72;2.15;;;;;;;15.03;80.48;96927.38;10536766;28;20226;-76
2022/08/12 21:49:36;;;;;;;2.15;2.05;;;;;;;14.90;81.20;96928.81;10518367;28;20650;-76
2022/08/12 21:54:41;;;;;;;6.55;2.65;;;;;;;14.77;82.01;96932.03;10536265;28;20237;-76
2022/08/12 21:59:42;;;;;;;4.75;2.70;;;;;;;14.66;83.59;96927.19;10536272;28;20186;-76
2022/08/12 22:10:01;;;;;;;3.35;2.47;;;;;;;14.50;84.95;96933.38;10535555;28;20252;-76
2022/08/12 22:15:03;;;;;;;3.75;2.85;;;;;;;14.48;85.65;96942.44;10535278;28;20529;-76
2022/08/12 22:20:09;;;;;;;3.78;2.70;;;;;;;14.33;86.27;96947.66;10535239;28;20646;-76
2022/08/12 22:25:10;;;;;;;5.57;2.60;;;;;;;14.34;86.95;96936.13;10534686;28;20245;-76
2022/08/12 22:35:33;;;;;;;4.35;2.72;;;;;;;14.14;88.83;96943.66;10534542;28;20688;-74
2022/08/12 22:40:33;;;;;;;3.83;2.72;;;;;;;14.13;89.17;96934.91;10516229;28;20225;-75
2022/08/12 22:50:55;;;;;;;5.20;3.30;;;;;;;13.96;90.97;96936.00;10534443;28;20190;-73
2022/08/12 22:55:55;;;;;;;5.20;3.35;;;;;;;13.93;91.52;96931.06;10533888;28;20231;-75
2022/08/12 23:00:56;;;;;;;4.47;2.97;;;;;;;13.83;92.95;96926.03;10502819;28;20199;-77
2022/08/12 23:05:56;;;;;;;5.47;3.10;;;;;;;13.82;93.21;96927.81;10542260;28;20219;-75
2022/08/12 23:11:00;;;;;;;2.88;2.53;;;;;;;13.78;93.76;96930.97;10542775;28;20201;-74
2022/08/12 23:16:01;;;;;;;5.07;2.75;;;;;;;13.66;95.30;96931.34;10524204;28;20194;-74
2022/08/12 23:21:02;;;;;;;6.80;3.20;;;;;;;13.64;95.84;96924.59;10542121;28;20187;-75
2022/08/12 23:26:02;;;;;;;3.47;3.17;;;;;;;13.63;96.58;96929.06;10540618;28;20777;-75
2022/08/12 23:31:03;;;;;;;4.22;3.28;;;;;;;13.60;96.85;96923.28;10539859;28;20293;-76
2022/08/12 23:36:04;;;;;;;4.18;3.00;;;;;;;13.59;97.48;96921.69;10541274;28;20214;-76
2022/08/12 23:41:11;;;;;;;3.83;3.28;;;;;;;13.55;97.84;96915.91;10540675;28;20201;-75
2022/08/12 23:46:12;;;;;;;4.18;3.78;;;;;;;13.48;99.12;96918.41;10540498;28;20292;-75
2022/08/12 23:51:17;;;;;;;3.65;2.97;;;;;;;13.42;100.00;96921.72;10540497;28;20644;-75
2022/08/12 23:56:17;;;;;;;4.32;3.45;;;;;;;13.44;100.00;96914.47;10537972;28;20257;-75
